createdAt,value
2018-12-11T00:00:30.501Z,18.09
2018-12-11T00:01:30.658Z,18.09
2018-12-11T00:02:30.939Z,18.08
2018-12-11T00:03:30.789Z,18.08
2018-12-11T00:04:30.460Z,18.08
2018-12-11T00:05:30.959Z,18.06
2018-12-11T00:06:30.534Z,18.06
2018-12-11T00:07:30.660Z,18.05
2018-12-11T00:08:31.190Z,18.06
2018-12-11T00:09:30.355Z,18.05
2018-12-11T00:10:30.669Z,18.04
2018-12-11T00:11:34.266Z,18.04
2018-12-11T00:12:30.766Z,18.04
2018-12-11T00:13:30.482Z,18.05
2018-12-11T00:14:30.786Z,18.04
2018-12-11T00:15:30.496Z,18.05
2018-12-11T00:16:30.433Z,18.04
2018-12-11T00:17:30.404Z,18.04
2018-12-11T00:18:30.699Z,18.04
2018-12-11T00:19:30.356Z,18.04
2018-12-11T00:20:30.783Z,18.04
2018-12-11T00:21:30.432Z,18.04
2018-12-11T00:22:30.471Z,18.02
2018-12-11T00:23:30.551Z,18.03
2018-12-11T00:24:30.538Z,18.03
2018-12-11T00:25:30.815Z,18.02
2018-12-11T00:26:30.363Z,18.02
2018-12-11T00:27:30.670Z,18.02
2018-12-11T00:28:30.312Z,18.02
2018-12-11T00:29:30.713Z,18.01
2018-12-11T00:30:30.931Z,18
2018-12-11T00:31:30.844Z,18
2018-12-11T00:32:30.604Z,18
2018-12-11T00:33:30.314Z,18
2018-12-11T00:34:30.836Z,18
2018-12-11T00:35:30.772Z,17.98
2018-12-11T00:36:30.784Z,17.99
2018-12-11T00:37:30.641Z,17.99
2018-12-11T00:38:30.589Z,17.99
2018-12-11T00:39:30.850Z,17.99
2018-12-11T00:40:30.783Z,17.98
2018-12-11T00:41:30.896Z,17.98
2018-12-11T00:42:30.465Z,17.98
2018-12-11T00:43:30.823Z,17.98
2018-12-11T00:44:30.344Z,17.98
2018-12-11T00:45:30.699Z,17.97
2018-12-11T00:46:31.258Z,17.96
2018-12-11T00:47:30.461Z,17.96
2018-12-11T00:48:30.639Z,17.96
2018-12-11T00:49:30.342Z,17.96
2018-12-11T00:50:30.976Z,17.95
2018-12-11T00:51:30.339Z,17.94
2018-12-11T00:52:30.438Z,17.94
2018-12-11T00:53:30.473Z,17.94
2018-12-11T00:54:30.888Z,17.94
2018-12-11T00:55:30.387Z,17.93
2018-12-11T00:56:30.426Z,17.93
2018-12-11T00:57:30.449Z,17.92
2018-12-11T00:58:31.290Z,17.92
2018-12-11T00:59:30.900Z,17.92
2018-12-11T01:00:30.538Z,17.92
2018-12-11T01:01:30.881Z,17.92
2018-12-11T01:02:30.843Z,17.92
2018-12-11T01:03:30.758Z,17.92
2018-12-11T01:04:30.256Z,17.92
2018-12-11T01:05:30.948Z,17.91
2018-12-11T01:06:30.795Z,17.9
2018-12-11T01:07:30.545Z,17.9
2018-12-11T01:08:30.700Z,17.9
2018-12-11T01:09:30.670Z,17.89
2018-12-11T01:10:30.361Z,17.89
2018-12-11T01:11:30.858Z,17.89
2018-12-11T01:12:30.341Z,17.89
2018-12-11T01:13:30.423Z,17.89
2018-12-11T01:14:30.515Z,17.88
2018-12-11T01:15:30.359Z,17.89
2018-12-11T01:16:30.487Z,17.88
2018-12-11T01:17:30.344Z,17.88
2018-12-11T01:18:30.707Z,17.87
2018-12-11T01:19:30.339Z,17.87
2018-12-11T01:20:30.366Z,17.88
2018-12-11T01:21:30.556Z,17.88
2018-12-11T01:22:30.345Z,17.88
2018-12-11T01:23:30.793Z,17.87
2018-12-11T01:24:30.406Z,17.86
2018-12-11T01:25:30.875Z,17.86
2018-12-11T01:26:30.435Z,17.86
2018-12-11T01:27:30.389Z,17.86
2018-12-11T01:28:30.508Z,17.85
2018-12-11T01:29:30.382Z,17.86
2018-12-11T01:30:30.421Z,17.85
2018-12-11T01:31:30.361Z,17.84
2018-12-11T01:32:30.406Z,17.84
2018-12-11T01:33:30.274Z,17.83
2018-12-11T01:34:30.332Z,17.84
2018-12-11T01:35:30.804Z,17.84
2018-12-11T01:36:30.337Z,17.83
2018-12-11T01:37:30.534Z,17.83
2018-12-11T01:38:31.090Z,17.85
2018-12-11T01:39:30.619Z,17.84
2018-12-11T01:40:30.841Z,17.83
2018-12-11T01:41:30.613Z,17.82
2018-12-11T01:42:30.785Z,17.83
2018-12-11T01:43:30.801Z,17.82
2018-12-11T01:44:31.132Z,17.81
2018-12-11T01:45:30.665Z,17.81
2018-12-11T01:46:30.581Z,17.81
2018-12-11T01:47:31.037Z,17.81
2018-12-11T01:48:30.400Z,17.82
2018-12-11T01:49:31.086Z,17.81
2018-12-11T01:50:30.413Z,17.8
2018-12-11T01:51:30.802Z,17.8
2018-12-11T01:52:30.550Z,17.8
2018-12-11T01:53:30.357Z,17.79
2018-12-11T01:54:31.002Z,17.79
2018-12-11T01:55:30.619Z,17.8
2018-12-11T01:56:30.438Z,17.79
2018-12-11T01:57:30.347Z,17.79
2018-12-11T01:58:30.410Z,17.79
2018-12-11T01:59:30.602Z,17.79
2018-12-11T02:00:30.312Z,17.79
2018-12-11T02:01:30.510Z,17.79
2018-12-11T02:02:30.396Z,17.79
2018-12-11T02:03:32.299Z,17.79
2018-12-11T02:04:31.616Z,17.79
2018-12-11T02:05:30.897Z,17.79
2018-12-11T02:06:30.504Z,17.79
2018-12-11T02:07:30.474Z,17.78
2018-12-11T02:08:30.765Z,17.78
2018-12-11T02:09:30.287Z,17.77
2018-12-11T02:10:30.475Z,17.79
2018-12-11T02:11:30.376Z,17.77
2018-12-11T02:12:30.470Z,17.78
2018-12-11T02:13:30.483Z,17.77
2018-12-11T02:14:30.441Z,17.78
2018-12-11T02:15:30.755Z,17.77
2018-12-11T02:16:30.342Z,17.76
2018-12-11T02:17:30.490Z,17.78
2018-12-11T02:18:30.337Z,17.77
2018-12-11T02:19:30.824Z,17.76
2018-12-11T02:20:30.586Z,17.75
2018-12-11T02:21:30.465Z,17.76
2018-12-11T02:22:30.171Z,17.75
2018-12-11T02:23:30.290Z,17.75
2018-12-11T02:24:30.516Z,17.75
2018-12-11T02:25:30.381Z,17.74
2018-12-11T02:26:30.981Z,17.73
2018-12-11T02:27:30.517Z,17.73
2018-12-11T02:28:30.493Z,17.73
2018-12-11T02:29:30.423Z,17.73
2018-12-11T02:30:30.399Z,17.73
2018-12-11T02:31:30.734Z,17.73
2018-12-11T02:32:30.384Z,17.73
2018-12-11T02:33:30.285Z,17.72
2018-12-11T02:34:30.805Z,17.73
2018-12-11T02:35:30.381Z,17.72
2018-12-11T02:36:30.457Z,17.72
2018-12-11T02:37:30.802Z,17.72
2018-12-11T02:38:30.609Z,17.72
2018-12-11T02:39:30.402Z,17.73
2018-12-11T02:40:30.378Z,17.71
2018-12-11T02:41:30.757Z,17.73
2018-12-11T02:42:30.576Z,17.73
2018-12-11T02:43:30.868Z,17.73
2018-12-11T02:44:30.459Z,17.72
2018-12-11T02:45:30.669Z,17.73
2018-12-11T02:46:30.500Z,17.72
2018-12-11T02:47:30.950Z,17.72
2018-12-11T02:48:31.076Z,17.73
2018-12-11T02:49:30.861Z,17.72
2018-12-11T02:50:30.835Z,17.71
2018-12-11T02:51:30.546Z,17.7
2018-12-11T02:52:30.417Z,17.71
2018-12-11T02:53:30.282Z,17.7
2018-12-11T02:54:30.501Z,17.7
2018-12-11T02:55:30.540Z,17.71
2018-12-11T02:56:30.268Z,17.69
2018-12-11T02:57:30.400Z,17.7
2018-12-11T02:58:30.212Z,17.69
2018-12-11T02:59:30.422Z,17.69
2018-12-11T03:00:30.946Z,17.69
2018-12-11T03:01:30.339Z,17.68
2018-12-11T03:02:30.341Z,17.68
2018-12-11T03:03:30.542Z,17.67
2018-12-11T03:04:30.356Z,17.68
2018-12-11T03:05:30.268Z,17.69
2018-12-11T03:06:30.701Z,17.67
2018-12-11T03:07:30.455Z,17.67
2018-12-11T03:08:30.243Z,17.68
2018-12-11T03:09:31.152Z,17.67
2018-12-11T03:10:30.383Z,17.67
2018-12-11T03:11:30.340Z,17.67
2018-12-11T03:12:30.394Z,17.67
2018-12-11T03:13:30.259Z,17.67
2018-12-11T03:14:30.430Z,17.67
2018-12-11T03:15:30.424Z,17.67
2018-12-11T03:16:30.369Z,17.68
2018-12-11T03:17:30.735Z,17.67
2018-12-11T03:18:30.362Z,17.67
2018-12-11T03:19:30.517Z,17.67
2018-12-11T03:20:30.498Z,17.67
2018-12-11T03:21:30.711Z,17.66
2018-12-11T03:22:30.445Z,17.66
2018-12-11T03:23:30.708Z,17.66
2018-12-11T03:24:31.698Z,17.66
2018-12-11T03:25:30.651Z,17.67
2018-12-11T03:26:30.543Z,17.66
2018-12-11T03:27:30.418Z,17.64
2018-12-11T03:28:30.536Z,17.66
2018-12-11T03:29:30.703Z,17.64
2018-12-11T03:30:30.877Z,17.65
2018-12-11T03:31:30.847Z,17.65
2018-12-11T03:32:30.458Z,17.66
2018-12-11T03:33:30.431Z,17.65
2018-12-11T03:34:30.437Z,17.66
2018-12-11T03:35:31.000Z,17.66
2018-12-11T03:36:30.628Z,17.65
2018-12-11T03:37:30.250Z,17.64
2018-12-11T03:38:30.350Z,17.67
2018-12-11T03:39:30.418Z,17.65
2018-12-11T03:40:30.554Z,17.66
2018-12-11T03:41:30.507Z,17.63
2018-12-11T03:42:30.428Z,17.64
2018-12-11T03:43:30.524Z,17.64
2018-12-11T03:44:30.821Z,17.63
2018-12-11T03:45:30.667Z,17.62
2018-12-11T03:46:30.671Z,17.63
2018-12-11T03:47:30.406Z,17.62
2018-12-11T03:48:30.193Z,17.63
2018-12-11T03:49:30.459Z,17.63
2018-12-11T03:50:30.707Z,17.62
2018-12-11T03:51:30.401Z,17.61
2018-12-11T03:52:30.436Z,17.61
2018-12-11T03:53:30.732Z,17.62
2018-12-11T03:54:30.433Z,17.61
2018-12-11T03:55:30.730Z,17.61
2018-12-11T03:56:30.427Z,17.61
2018-12-11T03:57:30.249Z,17.61
2018-12-11T03:58:30.542Z,17.61
2018-12-11T03:59:30.608Z,17.6
2018-12-11T04:00:30.787Z,17.6
2018-12-11T04:01:30.826Z,17.61
2018-12-11T04:02:30.542Z,17.59
2018-12-11T04:03:30.482Z,17.6
2018-12-11T04:04:30.344Z,17.59
2018-12-11T04:05:30.745Z,17.59
2018-12-11T04:06:30.701Z,17.59
2018-12-11T04:07:30.492Z,17.61
2018-12-11T04:08:30.263Z,17.6
2018-12-11T04:09:30.384Z,17.59
2018-12-11T04:10:30.538Z,17.6
2018-12-11T04:11:30.864Z,17.58
2018-12-11T04:12:30.182Z,17.58
2018-12-11T04:13:30.833Z,17.59
2018-12-11T04:14:30.455Z,17.58
2018-12-11T04:15:30.527Z,17.58
2018-12-11T04:16:30.408Z,17.58
2018-12-11T04:17:31.138Z,17.58
2018-12-11T04:18:30.412Z,17.58
2018-12-11T04:19:30.305Z,17.57
2018-12-11T04:20:30.707Z,17.58
2018-12-11T04:21:30.455Z,17.58
2018-12-11T04:22:30.289Z,17.57
2018-12-11T04:23:30.483Z,17.56
2018-12-11T04:24:30.647Z,17.56
2018-12-11T04:25:30.401Z,17.56
2018-12-11T04:26:30.506Z,17.55
2018-12-11T04:27:30.292Z,17.57
2018-12-11T04:28:30.446Z,17.57
2018-12-11T04:29:30.536Z,17.57
2018-12-11T04:30:30.754Z,17.55
2018-12-11T04:31:30.534Z,17.55
2018-12-11T04:32:30.495Z,17.56
2018-12-11T04:33:30.536Z,17.56
2018-12-11T04:34:30.348Z,17.57
2018-12-11T04:35:30.166Z,17.58
2018-12-11T04:36:30.654Z,17.57
2018-12-11T04:37:30.560Z,17.57
2018-12-11T04:38:30.488Z,17.57
2018-12-11T04:39:34.389Z,17.58
2018-12-11T04:40:30.485Z,17.59
2018-12-11T04:41:30.391Z,17.6
2018-12-11T04:42:30.354Z,17.6
2018-12-11T04:43:30.440Z,17.61
2018-12-11T04:44:30.667Z,17.62
2018-12-11T04:45:30.374Z,17.62
2018-12-11T04:46:30.376Z,17.63
2018-12-11T04:47:30.438Z,17.64
2018-12-11T04:48:30.424Z,17.64
2018-12-11T04:49:30.343Z,17.65
2018-12-11T04:50:30.566Z,17.66
2018-12-11T04:51:30.420Z,17.67
2018-12-11T04:52:30.474Z,17.67
2018-12-11T04:53:30.111Z,17.67
2018-12-11T04:54:30.823Z,17.69
2018-12-11T04:55:30.253Z,17.71
2018-12-11T04:56:30.550Z,17.72
2018-12-11T04:57:30.527Z,17.73
2018-12-11T04:58:30.393Z,17.74
2018-12-11T04:59:30.394Z,17.75
2018-12-11T05:00:30.238Z,17.77
2018-12-11T05:01:30.621Z,17.79
2018-12-11T05:02:31.559Z,17.81
2018-12-11T05:03:30.678Z,17.83
2018-12-11T05:04:30.554Z,17.84
2018-12-11T05:05:30.340Z,17.84
2018-12-11T05:06:30.658Z,17.86
2018-12-11T05:07:30.265Z,17.87
2018-12-11T05:08:30.721Z,17.89
2018-12-11T05:09:30.443Z,17.91
2018-12-11T05:10:30.352Z,17.92
2018-12-11T05:11:30.277Z,17.95
2018-12-11T05:12:30.618Z,17.96
2018-12-11T05:13:30.526Z,17.98
2018-12-11T05:14:30.242Z,18
2018-12-11T05:15:30.407Z,18.02
2018-12-11T05:16:30.770Z,18.04
2018-12-11T05:17:30.792Z,18.05
2018-12-11T05:18:30.730Z,18.08
2018-12-11T05:19:30.759Z,18.09
2018-12-11T05:20:30.515Z,18.11
2018-12-11T05:21:30.256Z,18.13
2018-12-11T05:22:30.467Z,18.15
2018-12-11T05:23:30.865Z,18.17
2018-12-11T05:24:30.675Z,18.18
2018-12-11T05:25:30.397Z,18.19
2018-12-11T05:26:30.248Z,18.22
2018-12-11T05:27:30.468Z,18.23
2018-12-11T05:28:30.772Z,18.24
2018-12-11T05:29:30.407Z,18.26
2018-12-11T05:30:30.344Z,18.27
2018-12-11T05:31:30.312Z,18.29
2018-12-11T05:32:30.733Z,18.3
2018-12-11T05:33:30.478Z,18.32
2018-12-11T05:34:30.357Z,18.33
2018-12-11T05:35:30.319Z,18.34
2018-12-11T05:36:30.353Z,18.35
2018-12-11T05:37:30.286Z,18.35
2018-12-11T05:38:30.497Z,18.37
2018-12-11T05:39:30.176Z,18.37
2018-12-11T05:40:30.720Z,18.39
2018-12-11T05:41:30.354Z,18.4
2018-12-11T05:42:30.240Z,18.41
2018-12-11T05:43:30.408Z,18.41
2018-12-11T05:44:30.316Z,18.42
2018-12-11T05:45:30.690Z,18.43
2018-12-11T05:46:30.171Z,18.44
2018-12-11T05:47:30.583Z,18.45
2018-12-11T05:48:30.835Z,18.46
2018-12-11T05:49:30.241Z,18.47
2018-12-11T05:50:30.476Z,18.48
2018-12-11T05:51:30.362Z,18.48
2018-12-11T05:52:30.368Z,18.48
2018-12-11T05:53:30.274Z,18.49
2018-12-11T05:54:30.233Z,18.5
2018-12-11T05:55:31.550Z,18.51
2018-12-11T05:56:30.319Z,18.52
2018-12-11T05:57:30.694Z,18.52
2018-12-11T05:58:30.372Z,18.52
2018-12-11T05:59:30.507Z,18.53
2018-12-11T06:00:30.257Z,18.53
2018-12-11T06:01:30.437Z,18.53
2018-12-11T06:02:30.747Z,18.54
2018-12-11T06:03:30.212Z,18.54
2018-12-11T06:04:30.356Z,18.55
2018-12-11T06:05:30.600Z,18.55
2018-12-11T06:06:30.381Z,18.55
2018-12-11T06:07:30.483Z,18.55
2018-12-11T06:08:30.384Z,18.56
2018-12-11T06:09:30.303Z,18.56
2018-12-11T06:10:30.596Z,18.56
2018-12-11T06:11:30.447Z,18.57
2018-12-11T06:12:30.290Z,18.56
2018-12-11T06:13:30.126Z,18.56
2018-12-11T06:14:30.132Z,18.57
2018-12-11T06:15:30.374Z,18.57
2018-12-11T06:16:30.169Z,18.57
2018-12-11T06:17:30.247Z,18.57
2018-12-11T06:18:30.328Z,18.57
2018-12-11T06:19:30.246Z,18.57
2018-12-11T06:20:30.293Z,18.58
2018-12-11T06:21:30.190Z,18.58
2018-12-11T06:22:30.261Z,18.58
2018-12-11T06:23:30.224Z,18.58
2018-12-11T06:24:30.224Z,18.58
2018-12-11T06:25:30.449Z,18.57
2018-12-11T06:26:30.278Z,18.56
2018-12-11T06:27:30.512Z,18.6
2018-12-11T06:28:30.301Z,18.6
2018-12-11T06:29:30.300Z,18.6
2018-12-11T06:30:30.826Z,18.6
2018-12-11T06:31:30.194Z,18.62
2018-12-11T06:32:30.365Z,18.63
2018-12-11T06:33:30.990Z,18.65
2018-12-11T06:34:30.384Z,18.65
2018-12-11T06:35:30.157Z,18.65
2018-12-11T06:36:30.315Z,18.66
2018-12-11T06:37:30.248Z,18.68
2018-12-11T06:38:30.354Z,18.69
2018-12-11T06:39:30.642Z,18.67
2018-12-11T06:40:31.079Z,18.66
2018-12-11T06:41:30.310Z,18.65
2018-12-11T06:42:30.642Z,18.65
2018-12-11T06:43:30.535Z,18.65
2018-12-11T06:44:31.473Z,18.64
2018-12-11T06:45:30.222Z,18.64
2018-12-11T06:46:30.393Z,18.64
2018-12-11T06:47:30.468Z,18.64
2018-12-11T06:48:30.374Z,18.63
2018-12-11T06:49:30.192Z,18.63
2018-12-11T06:50:30.889Z,18.63
2018-12-11T06:51:30.218Z,18.63
2018-12-11T06:52:30.375Z,18.62
2018-12-11T06:53:30.581Z,18.62
2018-12-11T06:54:30.325Z,18.61
2018-12-11T06:55:31.012Z,18.61
2018-12-11T06:56:30.243Z,18.6
2018-12-11T06:57:30.774Z,18.6
2018-12-11T06:58:30.480Z,18.59
2018-12-11T06:59:30.638Z,18.59
2018-12-11T07:00:30.142Z,18.57
2018-12-11T07:01:30.267Z,18.56
2018-12-11T07:02:30.373Z,18.57
2018-12-11T07:03:30.152Z,18.56
2018-12-11T07:04:30.413Z,18.55
2018-12-11T07:05:30.497Z,18.55
2018-12-11T07:06:30.701Z,18.55
2018-12-11T07:07:30.163Z,18.54
2018-12-11T07:08:30.490Z,18.54
2018-12-11T07:09:30.728Z,18.54
2018-12-11T07:10:30.174Z,18.54
2018-12-11T07:11:30.404Z,18.53
2018-12-11T07:12:30.410Z,18.52
2018-12-11T07:13:30.438Z,18.52
2018-12-11T07:14:30.814Z,18.51
2018-12-11T07:15:30.358Z,18.52
2018-12-11T07:20:48.380Z,18.52
2018-12-11T07:21:48.150Z,18.5
2018-12-11T07:22:48.537Z,18.5
2018-12-11T07:23:48.446Z,18.49
2018-12-11T07:24:48.311Z,18.49
2018-12-11T07:25:48.277Z,18.49
2018-12-11T07:26:48.313Z,18.48
2018-12-11T07:27:48.230Z,18.48
2018-12-11T07:28:48.812Z,18.48
2018-12-11T07:29:48.016Z,18.47
2018-12-11T07:30:48.575Z,18.46
2018-12-11T07:31:48.232Z,18.46
2018-12-11T07:32:48.126Z,18.46
2018-12-11T07:33:51.412Z,18.45
2018-12-11T07:34:48.118Z,18.45
2018-12-11T07:35:48.318Z,18.44
2018-12-11T07:36:48.025Z,18.44
2018-12-11T07:37:48.212Z,18.43
2018-12-11T07:38:48.538Z,18.42
2018-12-11T07:39:48.220Z,18.41
2018-12-11T07:40:49.005Z,18.41
2018-12-11T07:41:48.376Z,18.4
2018-12-11T07:42:48.645Z,18.4
2018-12-11T07:43:48.178Z,18.4
2018-12-11T07:44:48.151Z,18.39
2018-12-11T07:45:48.350Z,18.38
2018-12-11T07:46:48.245Z,18.37
2018-12-11T07:47:48.627Z,18.37
2018-12-11T07:48:48.160Z,18.35
2018-12-11T07:49:48.266Z,18.35
2018-12-11T07:50:48.341Z,18.35
2018-12-11T07:51:48.248Z,18.34
2018-12-11T07:52:48.170Z,18.34
2018-12-11T07:53:48.219Z,18.34
2018-12-11T07:54:47.985Z,18.33
2018-12-11T07:55:48.151Z,18.33
2018-12-11T07:56:48.304Z,18.32
2018-12-11T07:57:48.574Z,18.31
2018-12-11T07:58:48.314Z,18.31
2018-12-11T07:59:48.065Z,18.3
2018-12-11T08:00:48.278Z,18.3
2018-12-11T08:01:48.113Z,18.3
2018-12-11T08:02:48.179Z,18.29
2018-12-11T08:03:48.061Z,18.29
2018-12-11T08:04:48.152Z,18.29
2018-12-11T08:05:48.302Z,18.29
2018-12-11T08:06:48.171Z,18.28
2018-12-11T08:07:48.240Z,18.28
2018-12-11T08:08:48.166Z,18.28
2018-12-11T08:09:48.478Z,18.28
2018-12-11T08:10:48.364Z,18.26
2018-12-11T08:11:48.483Z,18.26
2018-12-11T08:12:48.183Z,18.26
2018-12-11T08:13:48.456Z,18.25
2018-12-11T08:14:48.208Z,18.24
2018-12-11T08:15:48.150Z,18.25
2018-12-11T08:16:48.365Z,18.25
2018-12-11T08:17:48.136Z,18.24
2018-12-11T08:18:48.530Z,18.24
2018-12-11T08:19:48.317Z,18.24
2018-12-11T08:20:48.751Z,18.24
2018-12-11T08:21:48.954Z,18.23
2018-12-11T08:22:48.094Z,18.23
2018-12-11T08:23:48.346Z,18.23
2018-12-11T08:24:48.295Z,18.23
2018-12-11T08:25:48.149Z,18.23
2018-12-11T08:26:48.675Z,18.23
2018-12-11T08:27:48.391Z,18.22
2018-12-11T08:28:48.357Z,18.22
2018-12-11T08:29:48.716Z,18.21
2018-12-11T08:30:48.293Z,18.2
2018-12-11T08:31:48.197Z,18.2
2018-12-11T08:32:48.407Z,18.2
2018-12-11T08:33:48.133Z,18.19
2018-12-11T08:34:48.637Z,18.19
2018-12-11T08:35:48.651Z,18.19
2018-12-11T08:36:48.386Z,18.18
2018-12-11T08:37:48.674Z,18.17
2018-12-11T08:38:48.145Z,18.17
2018-12-11T08:39:48.282Z,18.17
2018-12-11T08:40:48.961Z,18.17
2018-12-11T08:41:48.490Z,18.17
2018-12-11T08:42:48.600Z,18.17
2018-12-11T08:43:48.304Z,18.16
2018-12-11T08:44:51.751Z,18.16
2018-12-11T08:45:48.265Z,18.15
2018-12-11T08:46:48.539Z,18.16
2018-12-11T08:47:48.255Z,18.15
2018-12-11T08:48:48.017Z,18.16
2018-12-11T08:49:48.237Z,18.15
2018-12-11T08:50:48.095Z,18.14
2018-12-11T08:51:48.519Z,18.14
2018-12-11T08:52:48.347Z,18.14
2018-12-11T08:53:48.290Z,18.13
2018-12-11T08:54:48.045Z,18.13
2018-12-11T08:55:48.146Z,18.13
2018-12-11T08:56:48.280Z,18.12
2018-12-11T08:57:48.042Z,18.12
2018-12-11T08:58:48.350Z,18.11
2018-12-11T08:59:48.176Z,18.11
2018-12-11T09:00:48.523Z,18.11
2018-12-11T09:01:48.174Z,18.11
2018-12-11T09:02:48.542Z,18.1
2018-12-11T09:03:48.168Z,18.1
2018-12-11T09:04:48.153Z,18.1
2018-12-11T09:05:48.371Z,18.09
2018-12-11T09:06:48.910Z,18.09
2018-12-11T09:07:48.203Z,18.09
2018-12-11T09:08:48.987Z,18.08
2018-12-11T09:09:48.168Z,18.08
2018-12-11T09:10:48.045Z,18.07
2018-12-11T09:11:48.400Z,18.08
2018-12-11T09:12:48.301Z,18.07
2018-12-11T09:13:48.351Z,18.08
2018-12-11T09:14:48.681Z,18.07
2018-12-11T09:15:48.074Z,18.06
2018-12-11T09:16:48.187Z,18.06
2018-12-11T09:17:48.026Z,18.06
2018-12-11T09:18:48.181Z,18.06
2018-12-11T09:19:48.286Z,18.06
2018-12-11T09:20:48.198Z,18.06
2018-12-11T09:21:48.415Z,18.06
2018-12-11T09:22:48.276Z,18.06
2018-12-11T09:23:48.167Z,18.05
2018-12-11T09:24:48.139Z,18.07
2018-12-11T09:25:48.104Z,18.05
2018-12-11T09:26:48.508Z,18.06
2018-12-11T09:27:48.163Z,18.05
2018-12-11T09:28:48.400Z,18.06
2018-12-11T09:29:48.149Z,18.05
2018-12-11T09:30:48.196Z,18.05
2018-12-11T09:31:48.085Z,18.05
2018-12-11T09:32:48.108Z,18.05
2018-12-11T09:33:48.022Z,18.05
2018-12-11T09:34:48.105Z,18.05
2018-12-11T09:35:48.197Z,18.05
2018-12-11T09:36:48.133Z,18.05
2018-12-11T09:37:48.491Z,18.05
2018-12-11T09:38:48.111Z,18.04
2018-12-11T09:39:48.565Z,18.04
2018-12-11T09:40:48.274Z,18.04
2018-12-11T09:41:48.114Z,18.04
2018-12-11T09:42:48.810Z,18.04
2018-12-11T09:43:48.082Z,18.04
2018-12-11T09:44:48.220Z,18.04
2018-12-11T09:45:48.218Z,18.04
2018-12-11T09:46:48.200Z,18.04
2018-12-11T09:47:48.332Z,18.04
2018-12-11T09:48:48.159Z,18.04
2018-12-11T09:49:48.306Z,18.04
2018-12-11T09:50:48.359Z,18.04
2018-12-11T09:51:48.483Z,18.03
2018-12-11T09:52:48.399Z,18.03
2018-12-11T09:53:48.125Z,18.03
2018-12-11T09:54:48.286Z,18.03
2018-12-11T09:55:48.623Z,18.02
2018-12-11T09:56:48.571Z,18.03
2018-12-11T09:57:48.077Z,18.02
2018-12-11T09:58:48.249Z,18.02
2018-12-11T09:59:48.562Z,18.01
2018-12-11T10:00:48.078Z,18.03
2018-12-11T10:01:48.135Z,18.02
2018-12-11T10:02:48.390Z,18.02
2018-12-11T10:03:48.690Z,18.01
2018-12-11T10:04:48.189Z,18
2018-12-11T10:05:48.398Z,18.01
2018-12-11T10:06:48.581Z,18
2018-12-11T10:07:48.241Z,18
2018-12-11T10:08:48.027Z,18
2018-12-11T10:09:47.966Z,18.01
2018-12-11T10:10:48.028Z,18
2018-12-11T10:11:48.558Z,17.99
2018-12-11T10:12:48.372Z,17.99
2018-12-11T10:13:48.083Z,17.99
2018-12-11T10:14:48.272Z,17.99
2018-12-11T10:15:48.017Z,17.99
2018-12-11T10:16:48.384Z,17.98
2018-12-11T10:17:48.048Z,17.99
2018-12-11T10:18:48.143Z,17.99
2018-12-11T10:19:48.231Z,17.98
2018-12-11T10:20:48.908Z,17.98
2018-12-11T10:21:48.261Z,17.98
2018-12-11T10:22:48.255Z,17.98
2018-12-11T10:23:48.746Z,17.98
2018-12-11T10:24:48.538Z,17.98
2018-12-11T10:25:48.370Z,17.98
2018-12-11T10:26:48.470Z,17.98
2018-12-11T10:27:48.597Z,17.98
2018-12-11T10:28:48.153Z,17.98
2018-12-11T10:29:48.253Z,17.98
2018-12-11T10:30:48.299Z,17.97
2018-12-11T10:31:48.668Z,17.97
2018-12-11T10:32:48.167Z,17.97
2018-12-11T10:33:48.252Z,17.97
2018-12-11T10:34:48.204Z,17.97
2018-12-11T10:35:48.265Z,17.98
2018-12-11T10:36:49.716Z,17.98
2018-12-11T10:37:48.218Z,17.98
2018-12-11T10:38:49.139Z,17.96
2018-12-11T10:39:48.142Z,17.96
2018-12-11T10:40:48.224Z,17.96
2018-12-11T10:41:48.074Z,17.96
2018-12-11T10:42:48.605Z,17.96
2018-12-11T10:43:48.012Z,17.95
2018-12-11T10:44:48.160Z,17.95
2018-12-11T10:45:48.374Z,17.96
2018-12-11T10:46:48.421Z,17.97
2018-12-11T10:47:48.526Z,17.95
2018-12-11T10:48:48.235Z,17.96
2018-12-11T10:49:48.250Z,17.95
2018-12-11T10:50:48.066Z,17.96
2018-12-11T10:51:48.576Z,17.95
2018-12-11T10:52:48.660Z,17.94
2018-12-11T10:53:48.442Z,17.95
2018-12-11T10:54:48.008Z,17.95
2018-12-11T10:55:48.665Z,17.94
2018-12-11T10:56:48.141Z,17.95
2018-12-11T10:57:48.295Z,17.94
2018-12-11T10:58:48.419Z,17.95
2018-12-11T10:59:48.195Z,17.94
2018-12-11T11:00:48.859Z,17.94
2018-12-11T11:01:48.491Z,17.94
2018-12-11T11:02:48.316Z,17.93
2018-12-11T11:03:48.280Z,17.94
2018-12-11T11:04:47.971Z,17.93
2018-12-11T11:05:49.095Z,17.94
2018-12-11T11:06:48.000Z,17.94
2018-12-11T11:07:48.070Z,17.94
2018-12-11T11:08:48.220Z,17.93
2018-12-11T11:09:48.369Z,17.93
2018-12-11T11:10:48.150Z,17.93
2018-12-11T11:11:48.022Z,17.93
2018-12-11T11:12:48.297Z,17.93
2018-12-11T11:13:48.071Z,17.92
2018-12-11T11:14:48.241Z,17.93
2018-12-11T11:15:48.787Z,17.93
2018-12-11T11:16:48.116Z,17.92
2018-12-11T11:17:48.243Z,17.92
2018-12-11T11:18:48.101Z,17.92
2018-12-11T11:19:48.264Z,17.92
2018-12-11T11:20:48.124Z,17.92
2018-12-11T11:21:48.166Z,17.92
2018-12-11T11:22:48.178Z,17.92
2018-12-11T11:23:48.068Z,17.92
2018-12-11T11:24:48.158Z,17.92
2018-12-11T11:25:48.101Z,17.93
2018-12-11T11:26:48.591Z,17.92
2018-12-11T11:27:48.196Z,17.92
2018-12-11T11:28:48.501Z,17.92
2018-12-11T11:29:47.958Z,17.92
2018-12-11T11:30:48.012Z,17.92
2018-12-11T11:31:48.502Z,17.92
2018-12-11T11:32:48.353Z,17.92
2018-12-11T11:33:48.195Z,17.92
2018-12-11T11:34:48.118Z,17.92
2018-12-11T11:35:48.153Z,17.93
2018-12-11T11:36:48.091Z,17.93
2018-12-11T11:37:48.552Z,17.92
2018-12-11T11:38:48.010Z,17.92
2018-12-11T11:39:48.107Z,17.92
2018-12-11T11:40:48.234Z,17.92
2018-12-11T11:41:48.131Z,17.92
2018-12-11T11:42:48.315Z,17.92
2018-12-11T11:43:48.937Z,17.92
2018-12-11T11:44:48.339Z,17.92
2018-12-11T11:45:48.408Z,17.92
2018-12-11T11:46:48.723Z,17.91
2018-12-11T11:47:48.312Z,17.91
2018-12-11T11:48:48.345Z,17.91
2018-12-11T11:49:48.737Z,17.9
2018-12-11T11:50:48.095Z,17.91
2018-12-11T11:51:48.155Z,17.9
2018-12-11T11:52:48.162Z,17.9
2018-12-11T11:53:48.396Z,17.9
2018-12-11T11:54:48.770Z,17.9
2018-12-11T11:55:48.576Z,17.9
2018-12-11T11:56:49.053Z,17.9
2018-12-11T11:57:48.737Z,17.89
2018-12-11T11:58:48.125Z,17.9
2018-12-11T11:59:48.071Z,17.9
2018-12-11T12:00:48.105Z,17.9
2018-12-11T12:01:48.406Z,17.9
2018-12-11T12:02:48.194Z,17.91
2018-12-11T12:03:48.470Z,17.9
2018-12-11T12:04:47.982Z,17.9
2018-12-11T12:05:48.471Z,17.9
2018-12-11T12:06:48.263Z,17.9
2018-12-11T12:07:48.070Z,17.9
2018-12-11T12:08:48.054Z,17.89
2018-12-11T12:09:48.048Z,17.89
2018-12-11T12:10:48.232Z,17.88
2018-12-11T12:11:48.078Z,17.88
2018-12-11T12:12:48.231Z,17.88
2018-12-11T12:13:48.205Z,17.88
2018-12-11T12:14:49.355Z,17.89
2018-12-11T12:15:48.386Z,17.88
2018-12-11T12:16:48.020Z,17.88
2018-12-11T12:17:48.204Z,17.87
2018-12-11T12:18:47.993Z,17.88
2018-12-11T12:19:48.082Z,17.87
2018-12-11T12:20:48.423Z,17.87
2018-12-11T12:21:48.068Z,17.87
2018-12-11T12:22:48.368Z,17.87
2018-12-11T12:23:48.368Z,17.87
2018-12-11T12:24:48.281Z,17.88
2018-12-11T12:25:48.038Z,17.87
2018-12-11T12:26:48.395Z,17.88
2018-12-11T12:27:48.264Z,17.89
2018-12-11T12:28:48.014Z,17.89
2018-12-11T12:29:48.046Z,17.88
2018-12-11T12:30:48.411Z,17.88
2018-12-11T12:31:48.186Z,17.88
2018-12-11T12:32:48.007Z,17.88
2018-12-11T12:33:48.576Z,17.88
2018-12-11T12:34:48.137Z,17.89
2018-12-11T12:35:48.048Z,17.88
2018-12-11T12:36:49.101Z,17.88
2018-12-11T12:37:48.001Z,17.88
2018-12-11T12:38:47.976Z,17.88
2018-12-11T12:39:47.990Z,17.87
2018-12-11T12:40:50.872Z,17.87
2018-12-11T12:41:48.089Z,17.87
2018-12-11T12:42:48.285Z,17.86
2018-12-11T12:43:48.476Z,17.87
2018-12-11T12:44:48.120Z,17.86
2018-12-11T12:45:48.236Z,17.86
2018-12-11T12:46:48.107Z,17.86
2018-12-11T12:47:48.868Z,17.86
2018-12-11T12:48:48.068Z,17.86
2018-12-11T12:49:51.225Z,17.86
2018-12-11T12:50:48.881Z,17.86
2018-12-11T12:51:48.067Z,17.86
2018-12-11T12:52:48.086Z,17.86
2018-12-11T12:53:48.392Z,17.86
2018-12-11T12:54:49.397Z,17.86
2018-12-11T12:55:48.460Z,17.86
2018-12-11T12:56:48.151Z,17.86
2018-12-11T12:57:48.228Z,17.86
2018-12-11T12:58:48.514Z,17.86
2018-12-11T12:59:48.229Z,17.86